sensor_id;sensor_type;location;lat;lon;timestamp;temperature;humidity
12819;DHT22;6474;53.474;9.894;2022-07-10T00:02:23;14.80;68.60
12819;DHT22;6474;53.474;9.894;2022-07-10T00:04:52;14.80;68.60
12819;DHT22;6474;53.474;9.894;2022-07-10T00:07:19;14.80;68.70
12819;DHT22;6474;53.474;9.894;2022-07-10T00:09:47;14.80;68.90
12819;DHT22;6474;53.474;9.894;2022-07-10T00:12:16;14.70;68.80
12819;DHT22;6474;53.474;9.894;2022-07-10T00:14:44;14.70;68.90
12819;DHT22;6474;53.474;9.894;2022-07-10T00:17:12;14.80;69.00
12819;DHT22;6474;53.474;9.894;2022-07-10T00:19:40;14.70;68.80
12819;DHT22;6474;53.474;9.894;2022-07-10T00:22:08;14.80;68.80
12819;DHT22;6474;53.474;9.894;2022-07-10T00:24:36;14.80;68.80
12819;DHT22;6474;53.474;9.894;2022-07-10T00:27:05;14.70;68.70
12819;DHT22;6474;53.474;9.894;2022-07-10T00:29:34;14.70;68.80
12819;DHT22;6474;53.474;9.894;2022-07-10T00:32:03;14.70;68.80
12819;DHT22;6474;53.474;9.894;2022-07-10T00:34:31;14.70;68.80
12819;DHT22;6474;53.474;9.894;2022-07-10T00:36:59;14.70;68.70
12819;DHT22;6474;53.474;9.894;2022-07-10T00:39:27;14.60;68.60
12819;DHT22;6474;53.474;9.894;2022-07-10T00:41:59;14.60;68.70
12819;DHT22;6474;53.474;9.894;2022-07-10T00:44:33;14.60;68.80
12819;DHT22;6474;53.474;9.894;2022-07-10T00:47:04;14.50;68.70
12819;DHT22;6474;53.474;9.894;2022-07-10T00:49:33;14.60;68.90
12819;DHT22;6474;53.474;9.894;2022-07-10T00:52:05;14.50;68.80
12819;DHT22;6474;53.474;9.894;2022-07-10T00:54:34;14.50;68.80
12819;DHT22;6474;53.474;9.894;2022-07-10T00:57:04;14.60;68.90
12819;DHT22;6474;53.474;9.894;2022-07-10T00:59:32;14.60;68.90
12819;DHT22;6474;53.474;9.894;2022-07-10T01:02:00;14.60;69.00
12819;DHT22;6474;53.474;9.894;2022-07-10T01:04:31;14.50;68.80
12819;DHT22;6474;53.474;9.894;2022-07-10T01:06:59;14.50;68.90
12819;DHT22;6474;53.474;9.894;2022-07-10T01:09:27;14.50;68.90
12819;DHT22;6474;53.474;9.894;2022-07-10T01:11:56;14.50;68.90
12819;DHT22;6474;53.474;9.894;2022-07-10T01:14:25;14.50;69.70
12819;DHT22;6474;53.474;9.894;2022-07-10T01:16:53;14.40;68.90
12819;DHT22;6474;53.474;9.894;2022-07-10T01:19:21;14.40;69.00
12819;DHT22;6474;53.474;9.894;2022-07-10T01:21:50;14.40;69.10
12819;DHT22;6474;53.474;9.894;2022-07-10T01:24:18;14.40;69.20
12819;DHT22;6474;53.474;9.894;2022-07-10T01:26:46;14.50;69.30
12819;DHT22;6474;53.474;9.894;2022-07-10T01:29:14;14.40;69.10
12819;DHT22;6474;53.474;9.894;2022-07-10T01:31:42;14.40;69.10
12819;DHT22;6474;53.474;9.894;2022-07-10T01:34:10;14.40;69.10
12819;DHT22;6474;53.474;9.894;2022-07-10T01:36:38;14.40;68.90
12819;DHT22;6474;53.474;9.894;2022-07-10T01:39:08;14.40;69.00
12819;DHT22;6474;53.474;9.894;2022-07-10T01:41:36;14.40;69.00
12819;DHT22;6474;53.474;9.894;2022-07-10T01:44:04;14.40;69.00
12819;DHT22;6474;53.474;9.894;2022-07-10T01:46:31;14.40;68.90
12819;DHT22;6474;53.474;9.894;2022-07-10T01:48:59;14.40;69.00
12819;DHT22;6474;53.474;9.894;2022-07-10T01:51:27;14.40;69.00
12819;DHT22;6474;53.474;9.894;2022-07-10T01:53:55;14.40;69.00
12819;DHT22;6474;53.474;9.894;2022-07-10T01:56:24;14.30;68.90
12819;DHT22;6474;53.474;9.894;2022-07-10T01:58:52;14.30;69.10
12819;DHT22;6474;53.474;9.894;2022-07-10T02:01:20;14.30;69.20
12819;DHT22;6474;53.474;9.894;2022-07-10T02:03:48;14.30;69.30
12819;DHT22;6474;53.474;9.894;2022-07-10T02:06:34;14.30;69.30
12819;DHT22;6474;53.474;9.894;2022-07-10T02:09:02;14.30;69.20
12819;DHT22;6474;53.474;9.894;2022-07-10T02:11:31;14.40;69.20
12819;DHT22;6474;53.474;9.894;2022-07-10T02:13:58;14.30;69.00
12819;DHT22;6474;53.474;9.894;2022-07-10T02:16:26;14.30;69.00
12819;DHT22;6474;53.474;9.894;2022-07-10T02:18:54;14.30;69.00
12819;DHT22;6474;53.474;9.894;2022-07-10T02:21:22;14.30;68.90
12819;DHT22;6474;53.474;9.894;2022-07-10T02:23:50;14.40;69.00
12819;DHT22;6474;53.474;9.894;2022-07-10T02:26:18;14.40;69.10
12819;DHT22;6474;53.474;9.894;2022-07-10T02:28:47;14.30;69.00
12819;DHT22;6474;53.474;9.894;2022-07-10T02:31:14;14.30;69.10
12819;DHT22;6474;53.474;9.894;2022-07-10T02:33:42;14.30;69.10
12819;DHT22;6474;53.474;9.894;2022-07-10T02:36:10;14.30;69.10
12819;DHT22;6474;53.474;9.894;2022-07-10T02:38:38;14.30;69.10
12819;DHT22;6474;53.474;9.894;2022-07-10T02:41:07;14.30;69.10
12819;DHT22;6474;53.474;9.894;2022-07-10T02:43:35;14.30;69.00
12819;DHT22;6474;53.474;9.894;2022-07-10T02:46:04;14.30;69.00
12819;DHT22;6474;53.474;9.894;2022-07-10T02:48:32;14.30;69.00
12819;DHT22;6474;53.474;9.894;2022-07-10T02:51:00;14.30;68.90
12819;DHT22;6474;53.474;9.894;2022-07-10T02:53:28;14.30;68.90
12819;DHT22;6474;53.474;9.894;2022-07-10T02:55:57;14.30;68.90
12819;DHT22;6474;53.474;9.894;2022-07-10T02:58:25;14.30;69.00
12819;DHT22;6474;53.474;9.894;2022-07-10T03:00:53;14.30;69.00
12819;DHT22;6474;53.474;9.894;2022-07-10T03:03:22;14.20;69.10
12819;DHT22;6474;53.474;9.894;2022-07-10T03:05:50;14.20;69.10
12819;DHT22;6474;53.474;9.894;2022-07-10T03:08:18;14.20;69.10
12819;DHT22;6474;53.474;9.894;2022-07-10T03:10:46;14.10;69.10
12819;DHT22;6474;53.474;9.894;2022-07-10T03:13:14;14.10;69.20
12819;DHT22;6474;53.474;9.894;2022-07-10T03:15:42;14.10;69.20
12819;DHT22;6474;53.474;9.894;2022-07-10T03:18:09;14.10;69.20
12819;DHT22;6474;53.474;9.894;2022-07-10T03:20:39;14.20;69.30
12819;DHT22;6474;53.474;9.894;2022-07-10T03:23:06;14.10;69.20
12819;DHT22;6474;53.474;9.894;2022-07-10T03:25:34;14.20;69.20
12819;DHT22;6474;53.474;9.894;2022-07-10T03:28:02;14.20;69.10
12819;DHT22;6474;53.474;9.894;2022-07-10T03:30:30;14.20;69.10
12819;DHT22;6474;53.474;9.894;2022-07-10T03:32:58;14.20;69.00
12819;DHT22;6474;53.474;9.894;2022-07-10T03:35:26;14.20;69.00
12819;DHT22;6474;53.474;9.894;2022-07-10T03:37:55;14.20;68.90
12819;DHT22;6474;53.474;9.894;2022-07-10T03:40:23;14.30;69.00
12819;DHT22;6474;53.474;9.894;2022-07-10T03:42:52;14.30;69.00
12819;DHT22;6474;53.474;9.894;2022-07-10T03:45:20;14.30;69.70
12819;DHT22;6474;53.474;9.894;2022-07-10T03:47:47;14.30;69.00
12819;DHT22;6474;53.474;9.894;2022-07-10T03:50:15;14.30;68.90
12819;DHT22;6474;53.474;9.894;2022-07-10T03:52:43;14.30;68.90
12819;DHT22;6474;53.474;9.894;2022-07-10T03:55:14;14.30;68.90
12819;DHT22;6474;53.474;9.894;2022-07-10T03:57:42;14.30;68.90
12819;DHT22;6474;53.474;9.894;2022-07-10T04:00:20;14.30;69.70
12819;DHT22;6474;53.474;9.894;2022-07-10T04:02:54;14.40;68.90
12819;DHT22;6474;53.474;9.894;2022-07-10T04:05:23;14.40;68.90
12819;DHT22;6474;53.474;9.894;2022-07-10T04:07:51;14.40;68.80
12819;DHT22;6474;53.474;9.894;2022-07-10T04:10:20;14.40;68.70
12819;DHT22;6474;53.474;9.894;2022-07-10T04:12:48;14.40;68.50
12819;DHT22;6474;53.474;9.894;2022-07-10T04:15:16;14.40;68.50
12819;DHT22;6474;53.474;9.894;2022-07-10T04:17:44;14.30;68.50
12819;DHT22;6474;53.474;9.894;2022-07-10T04:20:12;14.30;68.50
12819;DHT22;6474;53.474;9.894;2022-07-10T04:22:40;14.20;68.60
12819;DHT22;6474;53.474;9.894;2022-07-10T04:25:08;14.20;68.70
12819;DHT22;6474;53.474;9.894;2022-07-10T04:27:38;14.10;68.80
12819;DHT22;6474;53.474;9.894;2022-07-10T04:30:06;14.10;69.00
12819;DHT22;6474;53.474;9.894;2022-07-10T04:32:35;14.10;69.20
12819;DHT22;6474;53.474;9.894;2022-07-10T04:35:04;14.10;69.20
12819;DHT22;6474;53.474;9.894;2022-07-10T04:37:32;14.20;69.30
12819;DHT22;6474;53.474;9.894;2022-07-10T04:40:01;14.30;69.40
12819;DHT22;6474;53.474;9.894;2022-07-10T04:42:29;14.40;69.20
12819;DHT22;6474;53.474;9.894;2022-07-10T04:44:58;14.50;69.20
12819;DHT22;6474;53.474;9.894;2022-07-10T04:47:26;14.60;69.00
12819;DHT22;6474;53.474;9.894;2022-07-10T04:49:54;14.80;68.80
12819;DHT22;6474;53.474;9.894;2022-07-10T04:52:21;14.90;68.40
12819;DHT22;6474;53.474;9.894;2022-07-10T04:54:49;14.90;68.10
12819;DHT22;6474;53.474;9.894;2022-07-10T04:57:17;14.90;68.00
12819;DHT22;6474;53.474;9.894;2022-07-10T04:59:45;14.90;68.00
12819;DHT22;6474;53.474;9.894;2022-07-10T05:02:14;14.90;68.10
12819;DHT22;6474;53.474;9.894;2022-07-10T05:04:42;14.90;68.20
12819;DHT22;6474;53.474;9.894;2022-07-10T05:07:10;15.00;68.40
12819;DHT22;6474;53.474;9.894;2022-07-10T05:09:37;15.00;68.30
12819;DHT22;6474;53.474;9.894;2022-07-10T05:12:06;15.00;68.30
12819;DHT22;6474;53.474;9.894;2022-07-10T05:14:34;15.10;68.40
12819;DHT22;6474;53.474;9.894;2022-07-10T05:17:02;15.10;68.40
12819;DHT22;6474;53.474;9.894;2022-07-10T05:19:31;15.10;68.40
12819;DHT22;6474;53.474;9.894;2022-07-10T05:21:59;15.10;68.40
12819;DHT22;6474;53.474;9.894;2022-07-10T05:24:27;15.10;68.50
12819;DHT22;6474;53.474;9.894;2022-07-10T05:26:55;15.20;68.70
12819;DHT22;6474;53.474;9.894;2022-07-10T05:29:23;15.20;68.70
12819;DHT22;6474;53.474;9.894;2022-07-10T05:31:50;15.30;68.90
12819;DHT22;6474;53.474;9.894;2022-07-10T05:34:18;15.30;68.70
12819;DHT22;6474;53.474;9.894;2022-07-10T05:36:47;15.30;68.80
12819;DHT22;6474;53.474;9.894;2022-07-10T05:39:15;15.30;68.80
12819;DHT22;6474;53.474;9.894;2022-07-10T05:41:43;15.30;68.80
12819;DHT22;6474;53.474;9.894;2022-07-10T05:44:11;15.40;68.80
12819;DHT22;6474;53.474;9.894;2022-07-10T05:46:39;15.50;68.60
12819;DHT22;6474;53.474;9.894;2022-07-10T05:49:07;15.60;68.40
12819;DHT22;6474;53.474;9.894;2022-07-10T05:51:35;15.70;68.20
12819;DHT22;6474;53.474;9.894;2022-07-10T05:54:12;15.70;68.00
12819;DHT22;6474;53.474;9.894;2022-07-10T05:56:40;15.70;67.90
12819;DHT22;6474;53.474;9.894;2022-07-10T05:59:07;15.80;68.00
12819;DHT22;6474;53.474;9.894;2022-07-10T06:01:35;15.80;68.00
12819;DHT22;6474;53.474;9.894;2022-07-10T06:04:03;15.90;68.10
12819;DHT22;6474;53.474;9.894;2022-07-10T06:06:31;15.90;68.20
12819;DHT22;6474;53.474;9.894;2022-07-10T06:08:59;16.00;68.30
12819;DHT22;6474;53.474;9.894;2022-07-10T06:11:28;16.10;68.40
12819;DHT22;6474;53.474;9.894;2022-07-10T06:13:56;16.10;68.30
12819;DHT22;6474;53.474;9.894;2022-07-10T06:16:25;16.20;68.40
12819;DHT22;6474;53.474;9.894;2022-07-10T06:18:53;16.20;68.40
12819;DHT22;6474;53.474;9.894;2022-07-10T06:21:21;16.30;68.20
12819;DHT22;6474;53.474;9.894;2022-07-10T06:23:49;16.30;68.20
12819;DHT22;6474;53.474;9.894;2022-07-10T06:26:17;16.40;68.10
12819;DHT22;6474;53.474;9.894;2022-07-10T06:28:47;16.40;68.10
12819;DHT22;6474;53.474;9.894;2022-07-10T06:31:15;16.40;68.10
12819;DHT22;6474;53.474;9.894;2022-07-10T06:33:43;16.40;68.10
12819;DHT22;6474;53.474;9.894;2022-07-10T06:36:10;16.40;68.10
12819;DHT22;6474;53.474;9.894;2022-07-10T06:38:39;16.50;68.20
12819;DHT22;6474;53.474;9.894;2022-07-10T06:41:09;16.60;68.30
12819;DHT22;6474;53.474;9.894;2022-07-10T06:43:37;16.70;68.50
12819;DHT22;6474;53.474;9.894;2022-07-10T06:46:06;16.70;68.40
12819;DHT22;6474;53.474;9.894;2022-07-10T06:48:34;16.80;68.50
12819;DHT22;6474;53.474;9.894;2022-07-10T06:51:05;16.80;68.50
12819;DHT22;6474;53.474;9.894;2022-07-10T06:53:33;16.90;68.60
12819;DHT22;6474;53.474;9.894;2022-07-10T06:56:01;17.00;68.70
12819;DHT22;6474;53.474;9.894;2022-07-10T06:58:29;17.00;68.70
12819;DHT22;6474;53.474;9.894;2022-07-10T07:00:57;17.10;68.90
12819;DHT22;6474;53.474;9.894;2022-07-10T07:03:26;17.10;68.90
12819;DHT22;6474;53.474;9.894;2022-07-10T07:05:54;17.10;68.90
12819;DHT22;6474;53.474;9.894;2022-07-10T07:08:22;17.10;68.90
12819;DHT22;6474;53.474;9.894;2022-07-10T07:10:50;17.20;69.00
12819;DHT22;6474;53.474;9.894;2022-07-10T07:13:17;17.20;69.00
12819;DHT22;6474;53.474;9.894;2022-07-10T07:15:45;17.20;69.00
12819;DHT22;6474;53.474;9.894;2022-07-10T07:18:20;17.30;69.10
12819;DHT22;6474;53.474;9.894;2022-07-10T07:21:01;17.40;69.00
12819;DHT22;6474;53.474;9.894;2022-07-10T07:23:49;17.50;68.80
12819;DHT22;6474;53.474;9.894;2022-07-10T07:26:16;17.50;68.60
12819;DHT22;6474;53.474;9.894;2022-07-10T07:28:44;17.60;68.50
12819;DHT22;6474;53.474;9.894;2022-07-10T07:31:12;17.70;68.50
12819;DHT22;6474;53.474;9.894;2022-07-10T07:33:41;17.70;68.30
12819;DHT22;6474;53.474;9.894;2022-07-10T07:36:10;17.80;68.30
12819;DHT22;6474;53.474;9.894;2022-07-10T07:38:38;17.90;68.30
12819;DHT22;6474;53.474;9.894;2022-07-10T07:41:07;17.90;68.10
12819;DHT22;6474;53.474;9.894;2022-07-10T07:43:35;17.80;67.80
12819;DHT22;6474;53.474;9.894;2022-07-10T07:46:03;17.80;67.70
12819;DHT22;6474;53.474;9.894;2022-07-10T07:48:31;17.80;67.60
12819;DHT22;6474;53.474;9.894;2022-07-10T07:50:59;17.80;67.70
12819;DHT22;6474;53.474;9.894;2022-07-10T07:53:28;17.70;67.50
12819;DHT22;6474;53.474;9.894;2022-07-10T07:55:56;17.70;67.40
12819;DHT22;6474;53.474;9.894;2022-07-10T07:58:24;17.70;67.30
12819;DHT22;6474;53.474;9.894;2022-07-10T08:00:52;17.80;67.40
12819;DHT22;6474;53.474;9.894;2022-07-10T08:03:20;17.80;67.30
12819;DHT22;6474;53.474;9.894;2022-07-10T08:06:07;17.90;67.30
12819;DHT22;6474;53.474;9.894;2022-07-10T08:08:37;17.90;67.20
12819;DHT22;6474;53.474;9.894;2022-07-10T08:11:05;17.90;67.10
12819;DHT22;6474;53.474;9.894;2022-07-10T08:13:33;18.00;67.10
12819;DHT22;6474;53.474;9.894;2022-07-10T08:16:01;18.00;67.10
12819;DHT22;6474;53.474;9.894;2022-07-10T08:18:34;18.10;67.20
12819;DHT22;6474;53.474;9.894;2022-07-10T08:21:03;18.10;67.10
12819;DHT22;6474;53.474;9.894;2022-07-10T08:23:31;18.20;67.10
12819;DHT22;6474;53.474;9.894;2022-07-10T08:26:00;18.20;67.20
12819;DHT22;6474;53.474;9.894;2022-07-10T08:28:28;18.30;67.20
12819;DHT22;6474;53.474;9.894;2022-07-10T08:30:56;18.40;67.20
12819;DHT22;6474;53.474;9.894;2022-07-10T08:33:24;18.50;67.20
12819;DHT22;6474;53.474;9.894;2022-07-10T08:35:52;18.40;67.00
12819;DHT22;6474;53.474;9.894;2022-07-10T08:38:20;18.30;66.90
12819;DHT22;6474;53.474;9.894;2022-07-10T08:40:47;18.40;67.00
12819;DHT22;6474;53.474;9.894;2022-07-10T08:43:18;18.40;67.00
12819;DHT22;6474;53.474;9.894;2022-07-10T08:45:46;18.50;67.00
12819;DHT22;6474;53.474;9.894;2022-07-10T08:48:21;18.60;66.80
12819;DHT22;6474;53.474;9.894;2022-07-10T08:50:53;18.60;66.90
12819;DHT22;6474;53.474;9.894;2022-07-10T08:53:26;18.50;66.70
12819;DHT22;6474;53.474;9.894;2022-07-10T08:55:56;18.40;66.60
12819;DHT22;6474;53.474;9.894;2022-07-10T08:58:26;18.40;67.40
12819;DHT22;6474;53.474;9.894;2022-07-10T09:00:54;18.40;66.60
12819;DHT22;6474;53.474;9.894;2022-07-10T09:03:22;18.50;66.70
12819;DHT22;6474;53.474;9.894;2022-07-10T09:05:50;18.50;66.70
12819;DHT22;6474;53.474;9.894;2022-07-10T09:08:22;18.50;66.70
12819;DHT22;6474;53.474;9.894;2022-07-10T09:10:50;18.60;66.80
12819;DHT22;6474;53.474;9.894;2022-07-10T09:13:18;18.60;66.50
12819;DHT22;6474;53.474;9.894;2022-07-10T09:15:50;18.70;66.50
12819;DHT22;6474;53.474;9.894;2022-07-10T09:18:23;18.80;66.30
12819;DHT22;6474;53.474;9.894;2022-07-10T09:20:52;18.80;66.20
12819;DHT22;6474;53.474;9.894;2022-07-10T09:23:21;18.80;66.20
12819;DHT22;6474;53.474;9.894;2022-07-10T09:25:52;18.90;66.20
12819;DHT22;6474;53.474;9.894;2022-07-10T09:28:22;19.00;66.00
12819;DHT22;6474;53.474;9.894;2022-07-10T09:30:51;19.10;65.80
12819;DHT22;6474;53.474;9.894;2022-07-10T09:33:23;19.20;65.60
12819;DHT22;6474;53.474;9.894;2022-07-10T09:36:04;19.30;65.80
12819;DHT22;6474;53.474;9.894;2022-07-10T09:38:56;19.40;65.50
12819;DHT22;6474;53.474;9.894;2022-07-10T09:41:28;19.40;65.40
12819;DHT22;6474;53.474;9.894;2022-07-10T09:43:56;19.40;65.60
12819;DHT22;6474;53.474;9.894;2022-07-10T09:46:27;19.50;65.70
12819;DHT22;6474;53.474;9.894;2022-07-10T09:49:01;19.50;65.50
12819;DHT22;6474;53.474;9.894;2022-07-10T09:51:33;19.70;65.40
12819;DHT22;6474;53.474;9.894;2022-07-10T09:54:04;19.80;65.20
12819;DHT22;6474;53.474;9.894;2022-07-10T09:56:43;19.80;65.20
12819;DHT22;6474;53.474;9.894;2022-07-10T09:59:12;19.90;65.00
12819;DHT22;6474;53.474;9.894;2022-07-10T10:01:44;19.90;64.90
12819;DHT22;6474;53.474;9.894;2022-07-10T10:04:17;19.90;64.70
12819;DHT22;6474;53.474;9.894;2022-07-10T10:06:46;20.00;64.80
12819;DHT22;6474;53.474;9.894;2022-07-10T10:09:21;20.00;64.80
12819;DHT22;6474;53.474;9.894;2022-07-10T10:11:56;20.10;64.90
12819;DHT22;6474;53.474;9.894;2022-07-10T10:14:25;20.00;64.80
12819;DHT22;6474;53.474;9.894;2022-07-10T10:16:56;19.90;64.70
12819;DHT22;6474;53.474;9.894;2022-07-10T10:19:24;19.90;64.90
12819;DHT22;6474;53.474;9.894;2022-07-10T10:22:12;19.90;64.90
12819;DHT22;6474;53.474;9.894;2022-07-10T10:24:42;19.90;64.90
12819;DHT22;6474;53.474;9.894;2022-07-10T10:27:12;20.00;64.90
12819;DHT22;6474;53.474;9.894;2022-07-10T10:29:47;20.10;64.90
12819;DHT22;6474;53.474;9.894;2022-07-10T10:32:17;20.20;64.90
12819;DHT22;6474;53.474;9.894;2022-07-10T10:34:46;20.30;64.90
12819;DHT22;6474;53.474;9.894;2022-07-10T10:37:36;20.50;65.00
12819;DHT22;6474;53.474;9.894;2022-07-10T10:40:06;20.60;64.80
12819;DHT22;6474;53.474;9.894;2022-07-10T10:42:36;20.50;64.80
12819;DHT22;6474;53.474;9.894;2022-07-10T10:45:30;20.40;64.80
12819;DHT22;6474;53.474;9.894;2022-07-10T10:48:04;20.40;65.20
12819;DHT22;6474;53.474;9.894;2022-07-10T10:50:53;20.50;65.20
12819;DHT22;6474;53.474;9.894;2022-07-10T10:53:24;20.50;65.20
12819;DHT22;6474;53.474;9.894;2022-07-10T10:56:23;20.40;65.40
12819;DHT22;6474;53.474;9.894;2022-07-10T10:58:51;20.30;65.50
12819;DHT22;6474;53.474;9.894;2022-07-10T11:01:25;20.50;65.60
12819;DHT22;6474;53.474;9.894;2022-07-10T11:04:17;20.70;65.60
12819;DHT22;6474;53.474;9.894;2022-07-10T11:06:48;20.80;65.20
12819;DHT22;6474;53.474;9.894;2022-07-10T11:09:25;20.70;65.10
12819;DHT22;6474;53.474;9.894;2022-07-10T11:12:04;20.70;65.10
12819;DHT22;6474;53.474;9.894;2022-07-10T11:14:33;20.50;65.10
12819;DHT22;6474;53.474;9.894;2022-07-10T11:17:03;20.40;65.20
12819;DHT22;6474;53.474;9.894;2022-07-10T11:19:33;20.60;65.40
12819;DHT22;6474;53.474;9.894;2022-07-10T11:22:31;20.60;65.30
12819;DHT22;6474;53.474;9.894;2022-07-10T11:28:06;20.70;65.20
12819;DHT22;6474;53.474;9.894;2022-07-10T11:30:50;20.70;64.90
12819;DHT22;6474;53.474;9.894;2022-07-10T11:33:18;20.50;64.80
12819;DHT22;6474;53.474;9.894;2022-07-10T11:35:50;20.40;65.00
12819;DHT22;6474;53.474;9.894;2022-07-10T11:38:19;20.40;65.30
12819;DHT22;6474;53.474;9.894;2022-07-10T11:40:47;20.60;65.30
12819;DHT22;6474;53.474;9.894;2022-07-10T11:43:16;20.70;65.10
12819;DHT22;6474;53.474;9.894;2022-07-10T11:45:48;20.70;64.70
12819;DHT22;6474;53.474;9.894;2022-07-10T11:48:16;20.70;64.50
12819;DHT22;6474;53.474;9.894;2022-07-10T11:50:44;20.70;64.60
12819;DHT22;6474;53.474;9.894;2022-07-10T11:53:14;20.50;64.60
12819;DHT22;6474;53.474;9.894;2022-07-10T11:55:49;20.60;64.80
12819;DHT22;6474;53.474;9.894;2022-07-10T11:58:20;20.60;64.90
12819;DHT22;6474;53.474;9.894;2022-07-10T12:00:59;20.80;65.00
12819;DHT22;6474;53.474;9.894;2022-07-10T12:03:28;20.80;64.90
12819;DHT22;6474;53.474;9.894;2022-07-10T12:06:01;20.80;64.80
12819;DHT22;6474;53.474;9.894;2022-07-10T12:08:42;20.90;64.90
12819;DHT22;6474;53.474;9.894;2022-07-10T12:11:14;21.10;64.90
12819;DHT22;6474;53.474;9.894;2022-07-10T12:13:42;21.30;65.60
12819;DHT22;6474;53.474;9.894;2022-07-10T12:16:11;21.50;64.60
12819;DHT22;6474;53.474;9.894;2022-07-10T12:18:40;21.40;64.30
12819;DHT22;6474;53.474;9.894;2022-07-10T12:21:11;21.20;64.20
12819;DHT22;6474;53.474;9.894;2022-07-10T12:23:45;20.90;64.30
12819;DHT22;6474;53.474;9.894;2022-07-10T12:26:15;20.80;64.70
12819;DHT22;6474;53.474;9.894;2022-07-10T12:28:54;20.80;64.60
12819;DHT22;6474;53.474;9.894;2022-07-10T12:31:24;20.90;64.80
12819;DHT22;6474;53.474;9.894;2022-07-10T12:33:55;21.00;64.70
12819;DHT22;6474;53.474;9.894;2022-07-10T12:36:25;21.00;64.60
12819;DHT22;6474;53.474;9.894;2022-07-10T12:38:55;21.00;64.30
12819;DHT22;6474;53.474;9.894;2022-07-10T12:41:26;20.90;63.90
12819;DHT22;6474;53.474;9.894;2022-07-10T12:43:54;20.70;64.20
12819;DHT22;6474;53.474;9.894;2022-07-10T12:46:23;20.60;64.40
12819;DHT22;6474;53.474;9.894;2022-07-10T12:49:02;20.70;64.50
12819;DHT22;6474;53.474;9.894;2022-07-10T12:51:32;21.00;64.70
12819;DHT22;6474;53.474;9.894;2022-07-10T12:54:39;21.10;64.60
12819;DHT22;6474;53.474;9.894;2022-07-10T12:57:07;21.30;64.10
12819;DHT22;6474;53.474;9.894;2022-07-10T12:59:36;21.40;64.10
12819;DHT22;6474;53.474;9.894;2022-07-10T13:02:15;21.40;64.00
12819;DHT22;6474;53.474;9.894;2022-07-10T13:04:52;21.30;64.10
12819;DHT22;6474;53.474;9.894;2022-07-10T13:07:29;21.10;64.00
12819;DHT22;6474;53.474;9.894;2022-07-10T13:10:00;21.10;64.40
12819;DHT22;6474;53.474;9.894;2022-07-10T13:12:30;21.00;64.30
12819;DHT22;6474;53.474;9.894;2022-07-10T13:14:59;20.90;64.20
12819;DHT22;6474;53.474;9.894;2022-07-10T13:17:26;20.90;64.40
12819;DHT22;6474;53.474;9.894;2022-07-10T13:19:54;20.80;64.50
12819;DHT22;6474;53.474;9.894;2022-07-10T13:22:23;20.80;64.50
12819;DHT22;6474;53.474;9.894;2022-07-10T13:24:51;20.80;64.80
12819;DHT22;6474;53.474;9.894;2022-07-10T13:27:20;20.80;64.80
12819;DHT22;6474;53.474;9.894;2022-07-10T13:29:50;20.80;64.70
12819;DHT22;6474;53.474;9.894;2022-07-10T13:32:17;20.80;64.70
12819;DHT22;6474;53.474;9.894;2022-07-10T13:34:45;20.90;64.80
12819;DHT22;6474;53.474;9.894;2022-07-10T13:37:13;20.80;64.60
12819;DHT22;6474;53.474;9.894;2022-07-10T13:39:41;20.80;64.70
12819;DHT22;6474;53.474;9.894;2022-07-10T13:42:09;20.70;64.60
12819;DHT22;6474;53.474;9.894;2022-07-10T13:44:38;20.70;64.70
12819;DHT22;6474;53.474;9.894;2022-07-10T13:47:06;20.70;64.70
12819;DHT22;6474;53.474;9.894;2022-07-10T13:49:34;20.80;64.70
12819;DHT22;6474;53.474;9.894;2022-07-10T13:52:03;21.00;64.60
12819;DHT22;6474;53.474;9.894;2022-07-10T13:54:31;21.10;64.50
12819;DHT22;6474;53.474;9.894;2022-07-10T13:56:59;21.10;64.40
12819;DHT22;6474;53.474;9.894;2022-07-10T13:59:28;21.10;64.40
12819;DHT22;6474;53.474;9.894;2022-07-10T14:01:57;21.00;64.20
12819;DHT22;6474;53.474;9.894;2022-07-10T14:04:25;21.00;64.40
12819;DHT22;6474;53.474;9.894;2022-07-10T14:06:53;20.80;64.30
12819;DHT22;6474;53.474;9.894;2022-07-10T14:09:21;20.60;64.20
12819;DHT22;6474;53.474;9.894;2022-07-10T14:11:51;20.50;64.50
12819;DHT22;6474;53.474;9.894;2022-07-10T14:14:18;20.40;64.60
12819;DHT22;6474;53.474;9.894;2022-07-10T14:16:51;20.40;64.60
12819;DHT22;6474;53.474;9.894;2022-07-10T14:19:20;20.30;64.60
12819;DHT22;6474;53.474;9.894;2022-07-10T14:21:48;20.40;64.70
12819;DHT22;6474;53.474;9.894;2022-07-10T14:24:16;20.60;64.50
12819;DHT22;6474;53.474;9.894;2022-07-10T14:26:44;20.60;64.30
12819;DHT22;6474;53.474;9.894;2022-07-10T14:29:13;20.60;64.20
12819;DHT22;6474;53.474;9.894;2022-07-10T14:31:41;20.50;64.20
12819;DHT22;6474;53.474;9.894;2022-07-10T14:34:10;20.70;64.50
12819;DHT22;6474;53.474;9.894;2022-07-10T14:36:39;20.90;64.30
12819;DHT22;6474;53.474;9.894;2022-07-10T14:39:07;21.20;64.00
12819;DHT22;6474;53.474;9.894;2022-07-10T14:41:35;21.30;63.80
12819;DHT22;6474;53.474;9.894;2022-07-10T14:44:03;21.20;63.60
12819;DHT22;6474;53.474;9.894;2022-07-10T14:46:31;21.20;63.60
12819;DHT22;6474;53.474;9.894;2022-07-10T14:48:59;21.20;63.80
12819;DHT22;6474;53.474;9.894;2022-07-10T14:51:27;21.20;64.00
12819;DHT22;6474;53.474;9.894;2022-07-10T14:53:57;21.20;63.90
12819;DHT22;6474;53.474;9.894;2022-07-10T14:56:26;21.30;63.80
12819;DHT22;6474;53.474;9.894;2022-07-10T14:58:55;21.40;63.70
12819;DHT22;6474;53.474;9.894;2022-07-10T15:01:40;21.50;63.60
12819;DHT22;6474;53.474;9.894;2022-07-10T15:04:08;21.50;63.60
12819;DHT22;6474;53.474;9.894;2022-07-10T15:06:36;21.50;63.20
12819;DHT22;6474;53.474;9.894;2022-07-10T15:09:05;21.50;63.20
12819;DHT22;6474;53.474;9.894;2022-07-10T15:11:33;21.60;63.30
12819;DHT22;6474;53.474;9.894;2022-07-10T15:14:02;21.60;63.00
12819;DHT22;6474;53.474;9.894;2022-07-10T15:16:31;21.40;62.50
12819;DHT22;6474;53.474;9.894;2022-07-10T15:18:59;21.40;62.50
12819;DHT22;6474;53.474;9.894;2022-07-10T15:21:27;21.50;62.60
12819;DHT22;6474;53.474;9.894;2022-07-10T15:23:55;21.40;62.50
12819;DHT22;6474;53.474;9.894;2022-07-10T15:26:25;21.50;62.60
12819;DHT22;6474;53.474;9.894;2022-07-10T15:28:52;21.50;62.60
12819;DHT22;6474;53.474;9.894;2022-07-10T15:31:21;21.50;62.50
12819;DHT22;6474;53.474;9.894;2022-07-10T15:33:51;21.30;62.30
12819;DHT22;6474;53.474;9.894;2022-07-10T15:36:18;21.20;62.20
12819;DHT22;6474;53.474;9.894;2022-07-10T15:38:48;21.10;62.30
12819;DHT22;6474;53.474;9.894;2022-07-10T15:41:16;21.10;62.50
12819;DHT22;6474;53.474;9.894;2022-07-10T15:43:45;21.00;62.20
12819;DHT22;6474;53.474;9.894;2022-07-10T15:46:13;21.00;62.60
12819;DHT22;6474;53.474;9.894;2022-07-10T15:48:42;21.10;62.70
12819;DHT22;6474;53.474;9.894;2022-07-10T15:51:11;21.10;62.60
12819;DHT22;6474;53.474;9.894;2022-07-10T15:53:41;21.20;62.70
12819;DHT22;6474;53.474;9.894;2022-07-10T15:56:10;21.20;62.20
12819;DHT22;6474;53.474;9.894;2022-07-10T15:58:40;21.20;62.20
12819;DHT22;6474;53.474;9.894;2022-07-10T16:01:10;21.10;62.20
12819;DHT22;6474;53.474;9.894;2022-07-10T16:03:40;21.10;62.20
12819;DHT22;6474;53.474;9.894;2022-07-10T16:06:11;21.20;62.20